createdAt,value
2023-02-15T00:00:27.106Z,102635.03
2023-02-15T00:02:56.613Z,102635.25
2023-02-15T00:05:25.022Z,102626.66
2023-02-15T00:07:53.375Z,102638.25
2023-02-15T00:10:21.798Z,102633.63
2023-02-15T00:12:50.161Z,102633.47
2023-02-15T00:15:18.810Z,102623.88
2023-02-15T00:17:48.600Z,102617.72
2023-02-15T00:20:17.113Z,102623.88
2023-02-15T00:22:45.472Z,102627.56
2023-02-15T00:25:13.874Z,102624.88
2023-02-15T00:27:42.302Z,102621.28
2023-02-15T00:30:11.524Z,102623.25
2023-02-15T00:32:39.986Z,102625.03
2023-02-15T00:35:10.435Z,102611.75
2023-02-15T00:37:38.760Z,102616.06
2023-02-15T00:40:08.646Z,102620.66
2023-02-15T00:42:37.050Z,102613.69
2023-02-15T00:45:06.024Z,102609.31
2023-02-15T00:47:34.609Z,102604.09
2023-02-15T00:50:04.346Z,102608.63
2023-02-15T00:52:34.209Z,102603.16
2023-02-15T00:55:05.240Z,102609.22
2023-02-15T00:57:33.679Z,102608.66
2023-02-15T01:00:02.034Z,102608.63
2023-02-15T01:02:30.609Z,102607.66
2023-02-15T01:04:58.983Z,102608.63
2023-02-15T01:07:27.420Z,102605.75
2023-02-15T01:09:57.305Z,102606.69
2023-02-15T01:12:25.672Z,102601.50
2023-02-15T01:14:53.981Z,102608.50
2023-02-15T01:17:22.352Z,102608.50
2023-02-15T01:19:52.408Z,102583.34
2023-02-15T01:22:21.364Z,102601.34
2023-02-15T01:24:51.674Z,102597.00
2023-02-15T01:27:21.516Z,102602.19
2023-02-15T01:29:50.086Z,102604.78
2023-02-15T01:32:18.509Z,102598.63
2023-02-15T01:34:46.880Z,102596.03
2023-02-15T01:37:15.384Z,102595.19
2023-02-15T01:39:44.109Z,102587.25
2023-02-15T01:42:13.513Z,102579.53
2023-02-15T01:44:55.181Z,102586.66
2023-02-15T01:47:29.303Z,102581.34
2023-02-15T01:50:04.431Z,102581.34
2023-02-15T01:52:33.253Z,102579.84
2023-02-15T01:55:01.724Z,102582.50
2023-02-15T01:57:31.966Z,102588.47
2023-02-15T02:00:08.791Z,102583.09
2023-02-15T02:02:46.120Z,102558.06
2023-02-15T02:05:16.991Z,102583.03
2023-02-15T02:07:48.961Z,102574.25
2023-02-15T02:10:20.096Z,102567.31
2023-02-15T02:12:51.624Z,102574.34
2023-02-15T02:15:29.577Z,102570.69
2023-02-15T02:18:12.308Z,102568.13
2023-02-15T02:21:15.860Z,102566.41
2023-02-15T02:23:58.790Z,102563.00
2023-02-15T02:26:58.267Z,102556.97
2023-02-15T02:29:58.950Z,102558.81
2023-02-15T02:32:52.599Z,102564.09
2023-02-15T02:35:29.150Z,102558.59
2023-02-15T02:38:05.966Z,102552.31
2023-02-15T02:40:46.746Z,102549.75
2023-02-15T02:43:23.133Z,102545.38
2023-02-15T02:45:58.595Z,102504.78
2023-02-15T02:48:31.840Z,102535.72
2023-02-15T02:51:00.278Z,102539.84
2023-02-15T02:53:30.134Z,102537.00
2023-02-15T02:56:01.883Z,102540.44
2023-02-15T02:58:37.897Z,102532.56
2023-02-15T03:01:11.672Z,102530.72
2023-02-15T03:03:45.332Z,102501.38
2023-02-15T03:06:19.172Z,102537.59
2023-02-15T03:08:50.879Z,102534.94
2023-02-15T03:11:19.474Z,102541.25
2023-02-15T03:13:50.809Z,102544.00
2023-02-15T03:16:28.414Z,102545.75
2023-02-15T03:19:02.697Z,102542.97
2023-02-15T03:21:36.950Z,102549.84
2023-02-15T03:24:16.086Z,102551.31
2023-02-15T03:26:47.876Z,102548.50
2023-02-15T03:29:18.569Z,102540.38
2023-02-15T03:31:51.386Z,102547.56
2023-02-15T03:34:21.502Z,102551.88
2023-02-15T03:36:55.607Z,102547.50
2023-02-15T03:39:32.457Z,102544.69
2023-02-15T03:42:09.410Z,102528.25
2023-02-15T03:44:49.449Z,102549.00
2023-02-15T03:47:21.657Z,102547.13
2023-02-15T03:49:57.151Z,102541.63
2023-02-15T03:52:26.482Z,102539.78
2023-02-15T03:54:55.841Z,102542.44
2023-02-15T03:57:44.645Z,102532.81
2023-02-15T04:00:34.024Z,102551.00
2023-02-15T04:03:25.491Z,102541.22
2023-02-15T04:05:55.387Z,102520.28
2023-02-15T04:08:44.370Z,102540.00
2023-02-15T04:11:11.814Z,102532.91
2023-02-15T04:13:40.263Z,102539.94
2023-02-15T04:16:08.990Z,102538.16
2023-02-15T04:18:59.242Z,102538.16
2023-02-15T04:21:48.655Z,102546.88
2023-02-15T04:24:35.124Z,102538.81
2023-02-15T04:27:04.646Z,102543.00
2023-02-15T04:29:33.885Z,102536.66
2023-02-15T04:32:03.845Z,102539.19
2023-02-15T04:34:32.672Z,102538.28
2023-02-15T04:37:02.451Z,102545.97
2023-02-15T04:39:31.084Z,102540.56
2023-02-15T04:41:59.555Z,102544.72
2023-02-15T04:44:28.041Z,102534.94
2023-02-15T04:46:56.998Z,102535.72
2023-02-15T04:49:25.410Z,102534.00
2023-02-15T04:51:53.872Z,102528.59
2023-02-15T04:54:23.703Z,102517.84
2023-02-15T04:56:52.046Z,102522.78
2023-02-15T04:59:20.472Z,102522.56
2023-02-15T05:01:49.054Z,102536.34
2023-02-15T05:04:17.456Z,102525.53
2023-02-15T05:06:45.983Z,102523.56
2023-02-15T05:09:14.860Z,102524.34
2023-02-15T05:11:44.825Z,102518.13
2023-02-15T05:14:13.303Z,102528.06
2023-02-15T05:16:41.931Z,102520.91
2023-02-15T05:19:10.360Z,102523.44
2023-02-15T05:21:38.715Z,102521.78
2023-02-15T05:24:28.696Z,102519.78
2023-02-15T05:27:15.824Z,102518.00
2023-02-15T05:29:44.251Z,102533.09
2023-02-15T05:32:15.479Z,102526.16
2023-02-15T05:34:44.023Z,102521.19
2023-02-15T05:37:12.403Z,102525.63
2023-02-15T05:39:40.855Z,102515.81
2023-02-15T05:42:10.776Z,102528.06
2023-02-15T05:44:39.210Z,102527.06
2023-02-15T05:47:08.515Z,102526.88
2023-02-15T05:49:37.185Z,102524.22
2023-02-15T05:52:05.847Z,102520.66
2023-02-15T05:54:34.540Z,102519.56
2023-02-15T05:57:02.877Z,102522.88
2023-02-15T05:59:33.260Z,102527.91
2023-02-15T06:02:01.809Z,102520.63
2023-02-15T06:04:30.584Z,102523.22
2023-02-15T06:06:59.394Z,102530.97
2023-02-15T06:09:27.728Z,102524.75
2023-02-15T06:11:57.182Z,102530.03
2023-02-15T06:14:25.552Z,102533.63
2023-02-15T06:16:55.478Z,102531.66
2023-02-15T06:19:24.017Z,102535.19
2023-02-15T06:21:52.478Z,102532.53
2023-02-15T06:24:20.960Z,102528.44
2023-02-15T06:26:49.382Z,102532.09
2023-02-15T06:29:17.964Z,102540.78
2023-02-15T06:31:46.429Z,102538.94
2023-02-15T06:34:16.357Z,102546.09
2023-02-15T06:36:44.735Z,102538.94
2023-02-15T06:39:13.127Z,102543.13
2023-02-15T06:41:41.596Z,102545.66
2023-02-15T06:44:10.246Z,102549.09
2023-02-15T06:46:38.763Z,102550.84
2023-02-15T06:49:07.255Z,102546.53
2023-02-15T06:51:37.083Z,102556.81
2023-02-15T06:54:05.459Z,102560.38
2023-02-15T06:56:34.415Z,102557.59
2023-02-15T06:59:02.827Z,102561.19
2023-02-15T07:01:31.337Z,102563.38
2023-02-15T07:03:59.673Z,102561.56
2023-02-15T07:06:28.131Z,102566.75
2023-02-15T07:08:57.943Z,102571.97
2023-02-15T07:11:58.324Z,102573.66
2023-02-15T07:14:28.729Z,102578.81
2023-02-15T07:16:57.538Z,102582.25
2023-02-15T07:19:25.932Z,102585.84
2023-02-15T07:21:54.325Z,102578.69
2023-02-15T07:24:24.408Z,102579.34
2023-02-15T07:26:52.796Z,102583.72
2023-02-15T07:29:21.206Z,102579.97
2023-02-15T07:31:49.609Z,102580.78
2023-02-15T07:34:17.994Z,102590.06
2023-02-15T07:36:48.302Z,102578.50
2023-02-15T07:39:16.719Z,102586.19
2023-02-15T07:41:46.544Z,102583.47
2023-02-15T07:44:16.194Z,102583.28
2023-02-15T07:46:45.642Z,102583.09
2023-02-15T07:49:14.144Z,102581.19
2023-02-15T07:51:42.705Z,102582.69
2023-02-15T07:54:11.122Z,102578.81
2023-02-15T07:56:39.610Z,102580.47
2023-02-15T07:59:10.269Z,102580.03
2023-02-15T08:01:40.259Z,102585.06
2023-02-15T08:04:10.634Z,102583.91
2023-02-15T08:06:45.252Z,102580.19
2023-02-15T08:09:18.034Z,102579.75
2023-02-15T08:11:46.650Z,102586.47
2023-02-15T08:14:20.408Z,102560.38
2023-02-15T08:16:52.511Z,102585.03
2023-02-15T08:19:23.734Z,102586.38
2023-02-15T08:21:58.546Z,102580.97
2023-02-15T08:24:31.248Z,102588.56
2023-02-15T08:27:00.134Z,102590.00
2023-02-15T08:29:31.549Z,102554.16
2023-02-15T08:32:03.393Z,102589.19
2023-02-15T08:34:33.881Z,102587.31
2023-02-15T08:37:02.870Z,102587.97
2023-02-15T08:39:31.576Z,102596.41
2023-02-15T08:42:00.143Z,102596.03
2023-02-15T08:44:30.438Z,102599.94
2023-02-15T08:47:03.925Z,102594.41
2023-02-15T08:49:32.668Z,102602.00
2023-02-15T08:52:02.068Z,102595.38
2023-02-15T08:54:31.022Z,102592.56
2023-02-15T08:56:59.985Z,102587.16
2023-02-15T08:59:29.953Z,102593.13
2023-02-15T09:01:58.513Z,102594.44
2023-02-15T09:04:27.979Z,102595.72
2023-02-15T09:06:56.658Z,102591.88
2023-02-15T09:09:25.137Z,102590.06
2023-02-15T09:11:58.751Z,102592.50
2023-02-15T09:14:29.793Z,102598.53
2023-02-15T09:16:58.252Z,102602.56
2023-02-15T09:19:27.086Z,102569.31
2023-02-15T09:21:55.662Z,102592.88
2023-02-15T09:24:24.121Z,102602.16
2023-02-15T09:26:52.557Z,102600.81
2023-02-15T09:29:21.871Z,102604.13
2023-02-15T09:31:52.689Z,102597.69
2023-02-15T09:34:23.028Z,102594.78
2023-02-15T09:36:53.275Z,102605.19
2023-02-15T09:39:24.836Z,102606.97
2023-02-15T09:42:11.890Z,102614.13
2023-02-15T09:44:54.812Z,102615.94
2023-02-15T09:47:50.729Z,102616.69
2023-02-15T09:50:25.923Z,102619.09
2023-02-15T09:53:09.620Z,102622.25
2023-02-15T09:55:53.549Z,102617.63
2023-02-15T09:58:32.097Z,102621.22
2023-02-15T10:01:06.720Z,102619.00
2023-02-15T10:03:46.329Z,102621.31
2023-02-15T10:06:43.222Z,102618.31
2023-02-15T10:09:30.892Z,102623.25
2023-02-15T10:12:16.051Z,102624.91
2023-02-15T10:15:10.312Z,102617.84
2023-02-15T10:17:54.715Z,102615.69
2023-02-15T10:20:32.811Z,102616.19
2023-02-15T10:23:16.965Z,102619.06
2023-02-15T10:25:50.878Z,102613.47
2023-02-15T10:28:21.752Z,102575.56
2023-02-15T10:30:52.249Z,102613.97
2023-02-15T10:33:37.153Z,102613.28
2023-02-15T10:36:19.369Z,102616.72
2023-02-15T10:38:56.679Z,102612.75
2023-02-15T10:41:35.462Z,102608.75
2023-02-15T10:44:20.385Z,102617.13
2023-02-15T10:47:14.301Z,102617.63
2023-02-15T10:49:56.187Z,102618.28
2023-02-15T10:52:41.989Z,102619.72
2023-02-15T10:55:18.075Z,102612.06
2023-02-15T10:57:56.342Z,102616.66
2023-02-15T11:00:32.400Z,102617.03
2023-02-15T11:03:14.832Z,102612.13
2023-02-15T11:05:51.396Z,102618.16
2023-02-15T11:08:21.726Z,102609.84
2023-02-15T11:10:53.809Z,102605.34
2023-02-15T11:13:26.994Z,102608.59
2023-02-15T11:15:59.536Z,102603.81
2023-02-15T11:18:33.558Z,102561.16
2023-02-15T11:21:06.331Z,102600.97
2023-02-15T11:23:38.474Z,102599.72
2023-02-15T11:26:16.058Z,102599.03
2023-02-15T11:28:50.775Z,102592.50
2023-02-15T11:31:21.609Z,102592.00
2023-02-15T11:33:56.438Z,102593.63
2023-02-15T11:36:28.691Z,102593.31
2023-02-15T11:39:03.145Z,102560.41
2023-02-15T11:41:36.884Z,102585.84
2023-02-15T11:44:10.808Z,102584.66
2023-02-15T11:46:39.628Z,102576.22
2023-02-15T11:49:23.237Z,102565.97
2023-02-15T11:51:52.895Z,102568.13
2023-02-15T11:54:28.879Z,102568.31
2023-02-15T11:57:01.849Z,102560.31
2023-02-15T11:59:37.766Z,102566.94
2023-02-15T12:02:18.432Z,102560.06
2023-02-15T12:04:51.841Z,102532.13
2023-02-15T12:07:26.784Z,102547.63
2023-02-15T12:10:05.361Z,102543.34
2023-02-15T12:12:35.914Z,102550.81
2023-02-15T12:15:06.780Z,102540.72
2023-02-15T12:17:38.046Z,102520.09
2023-02-15T12:20:22.839Z,102538.47
2023-02-15T12:22:54.323Z,102488.69
2023-02-15T12:25:28.358Z,102539.00
2023-02-15T12:27:57.376Z,102538.88
2023-02-15T12:30:32.556Z,102540.06
2023-02-15T12:33:08.295Z,102521.31
2023-02-15T12:35:38.985Z,102528.19
2023-02-15T12:38:24.029Z,102526.38
2023-02-15T12:41:02.135Z,102527.09
2023-02-15T12:43:34.584Z,102525.19
2023-02-15T12:46:23.797Z,102522.91
2023-02-15T12:49:08.988Z,102502.25
2023-02-15T12:51:51.918Z,102493.03
2023-02-15T12:54:41.216Z,102507.69
2023-02-15T12:57:24.382Z,102499.53
2023-02-15T12:59:55.252Z,102507.44
2023-02-15T13:02:29.612Z,102482.88
2023-02-15T13:05:00.010Z,102493.97
2023-02-15T13:07:33.700Z,102489.63
2023-02-15T13:10:02.185Z,102490.59
2023-02-15T13:12:34.692Z,102489.38
2023-02-15T13:15:05.752Z,102484.03
2023-02-15T13:17:35.795Z,102483.06
2023-02-15T13:20:10.908Z,102468.91
2023-02-15T13:22:44.125Z,102470.16
2023-02-15T13:25:17.473Z,102447.03
2023-02-15T13:27:50.676Z,102437.88
2023-02-15T13:30:33.229Z,102456.78
2023-02-15T13:33:06.306Z,102457.75
2023-02-15T13:35:45.676Z,102451.31
2023-02-15T13:38:30.160Z,102444.25
2023-02-15T13:41:05.715Z,102445.31
2023-02-15T13:43:49.050Z,102435.81
2023-02-15T13:46:27.758Z,102429.50
2023-02-15T13:49:10.455Z,102424.25
2023-02-15T13:51:45.603Z,102429.56
2023-02-15T13:54:35.908Z,102417.56
2023-02-15T13:57:22.090Z,102422.47
2023-02-15T14:00:05.173Z,102422.69
2023-02-15T14:03:34.841Z,102418.09
2023-02-15T14:06:28.930Z,102424.69
2023-02-15T14:09:11.813Z,102413.41
2023-02-15T14:11:49.713Z,102401.94
2023-02-15T14:14:34.319Z,102412.56
2023-02-15T14:17:13.690Z,102407.19
2023-02-15T14:19:50.995Z,102421.84
2023-02-15T14:22:31.033Z,102420.16
2023-02-15T14:25:15.884Z,102395.59
2023-02-15T14:27:55.205Z,102421.97
2023-02-15T14:30:29.311Z,102425.41
2023-02-15T14:33:04.436Z,102423.00
2023-02-15T14:35:33.379Z,102418.09
2023-02-15T14:38:09.047Z,102417.00
2023-02-15T14:41:06.188Z,102426.28
2023-02-15T14:43:57.500Z,102405.28
2023-02-15T14:46:33.846Z,102416.38
2023-02-15T14:49:13.343Z,102419.69
2023-02-15T14:52:03.109Z,102413.59
2023-02-15T14:55:00.310Z,102414.81
2023-02-15T14:57:34.979Z,102409.69
2023-02-15T15:00:40.328Z,102412.59
2023-02-15T15:03:25.546Z,102394.53
2023-02-15T15:06:01.002Z,102403.81
2023-02-15T15:08:36.655Z,102403.59
2023-02-15T15:11:44.209Z,102403.69
2023-02-15T15:14:28.623Z,102398.91
2023-02-15T15:16:57.105Z,102399.03
2023-02-15T15:20:09.193Z,102403.31
2023-02-15T15:22:39.032Z,102393.03
2023-02-15T15:25:13.160Z,102400.34
2023-02-15T15:27:56.718Z,102395.22
2023-02-15T15:31:01.911Z,102398.75
2023-02-15T15:34:16.286Z,102397.91
2023-02-15T15:37:18.659Z,102401.44
2023-02-15T15:40:26.072Z,102396.22
2023-02-15T15:43:20.618Z,102394.50
2023-02-15T15:46:07.825Z,102393.03
2023-02-15T15:48:39.160Z,102388.00
2023-02-15T15:51:13.509Z,102394.97
2023-02-15T15:53:45.349Z,102396.06
2023-02-15T15:56:21.026Z,102395.19
2023-02-15T15:58:53.957Z,102399.09
2023-02-15T16:01:29.024Z,102401.47
2023-02-15T16:04:00.018Z,102391.81
2023-02-15T16:06:34.925Z,102390.34
2023-02-15T16:09:20.090Z,102393.16
2023-02-15T16:11:52.630Z,102406.03
2023-02-15T16:14:28.998Z,102398.09
2023-02-15T16:16:59.684Z,102407.34
2023-02-15T16:19:33.226Z,102404.16
2023-02-15T16:22:04.731Z,102409.84
2023-02-15T16:25:11.077Z,102411.28
2023-02-15T16:27:43.087Z,102413.44
2023-02-15T16:30:30.031Z,102411.72
2023-02-15T16:33:06.766Z,102413.88
2023-02-15T16:35:36.122Z,102412.72
2023-02-15T16:38:04.857Z,102420.13
2023-02-15T16:40:54.825Z,102418.88
2023-02-15T16:43:28.628Z,102416.00
2023-02-15T16:46:06.331Z,102419.84
2023-02-15T16:48:41.248Z,102429.44
2023-02-15T16:51:11.155Z,102417.88
2023-02-15T16:53:39.669Z,102417.44
2023-02-15T16:56:08.338Z,102425.16
2023-02-15T16:58:44.116Z,102432.88
2023-02-15T17:01:15.261Z,102405.00
2023-02-15T17:03:44.635Z,102434.88
2023-02-15T17:06:23.484Z,102432.91
2023-02-15T17:08:51.972Z,102438.34
2023-02-15T17:11:22.124Z,102439.75
2023-02-15T17:14:15.543Z,102444.63
2023-02-15T17:16:50.262Z,102436.75
2023-02-15T17:19:23.802Z,102440.56
2023-02-15T17:21:55.160Z,102442.44
2023-02-15T17:24:35.238Z,102389.88
2023-02-15T17:27:07.465Z,102441.91
2023-02-15T17:29:40.521Z,102453.28
2023-02-15T17:32:18.438Z,102456.34
2023-02-15T17:35:09.337Z,102455.59
2023-02-15T17:37:49.464Z,102455.47
2023-02-15T17:40:23.439Z,102457.56
2023-02-15T17:42:51.897Z,102458.69
2023-02-15T17:45:22.489Z,102461.81
2023-02-15T17:47:51.679Z,102461.91
2023-02-15T17:50:23.432Z,102425.56
2023-02-15T17:52:52.671Z,102457.19
2023-02-15T17:55:39.242Z,102459.88
2023-02-15T17:58:10.664Z,102460.28
2023-02-15T18:01:00.600Z,102457.97
2023-02-15T18:03:58.197Z,102466.25
2023-02-15T18:06:43.783Z,102463.78
2023-02-15T18:09:31.972Z,102464.81
2023-02-15T18:12:00.423Z,102471.69
2023-02-15T18:14:28.828Z,102466.59
2023-02-15T18:16:58.676Z,102469.38
2023-02-15T18:19:28.330Z,102471.03
2023-02-15T18:21:58.033Z,102471.09
2023-02-15T18:24:27.997Z,102454.56
2023-02-15T18:26:56.849Z,102474.03
2023-02-15T18:29:25.184Z,102470.97
2023-02-15T18:31:57.050Z,102478.28
2023-02-15T18:34:31.392Z,102482.31
2023-02-15T18:37:03.594Z,102479.47
2023-02-15T18:39:38.814Z,102476.44
2023-02-15T18:42:08.368Z,102482.75
2023-02-15T18:44:36.659Z,102481.41
2023-02-15T18:47:07.281Z,102482.56
2023-02-15T18:49:37.131Z,102480.16
2023-02-15T18:52:05.653Z,102484.22
2023-02-15T18:54:34.588Z,102476.88
2023-02-15T18:57:03.998Z,102474.66
2023-02-15T18:59:33.839Z,102477.88
2023-02-15T19:02:02.363Z,102484.91
2023-02-15T19:04:32.579Z,102479.81
2023-02-15T19:07:02.417Z,102483.16
2023-02-15T19:09:31.113Z,102487.50
2023-02-15T19:12:00.676Z,102471.00
2023-02-15T19:14:32.045Z,102484.78
2023-02-15T19:17:01.786Z,102472.44
2023-02-15T19:19:30.235Z,102479.00
2023-02-15T19:21:58.748Z,102482.66
2023-02-15T19:24:38.260Z,102479.00
2023-02-15T19:27:08.288Z,102482.31
2023-02-15T19:29:36.625Z,102488.50
2023-02-15T19:32:05.114Z,102482.41
2023-02-15T19:34:34.045Z,102488.75
2023-02-15T19:37:02.536Z,102483.59
2023-02-15T19:39:38.708Z,102482.00
2023-02-15T19:42:07.640Z,102494.03
2023-02-15T19:44:35.926Z,102490.88
2023-02-15T19:47:04.875Z,102492.72
2023-02-15T19:49:33.539Z,102486.56
2023-02-15T19:52:02.721Z,102486.63
2023-02-15T19:54:35.372Z,102488.69
2023-02-15T19:57:03.909Z,102488.81
2023-02-15T19:59:34.382Z,102483.25
2023-02-15T20:02:02.905Z,102491.69
2023-02-15T20:04:31.614Z,102485.66
2023-02-15T20:07:03.012Z,102497.34
2023-02-15T20:09:35.684Z,102493.22
2023-02-15T20:12:04.376Z,102501.03
2023-02-15T20:14:32.954Z,102502.69
2023-02-15T20:17:01.364Z,102503.16
2023-02-15T20:19:29.905Z,102491.28
2023-02-15T20:21:59.078Z,102492.88
2023-02-15T20:24:30.507Z,102495.34
2023-02-15T20:27:00.756Z,102497.78
2023-02-15T20:29:30.168Z,102497.25
2023-02-15T20:32:01.595Z,102494.25
2023-02-15T20:34:30.161Z,102489.38
2023-02-15T20:36:58.943Z,102500.97
2023-02-15T20:39:27.365Z,102506.50
2023-02-15T20:41:56.707Z,102502.72
2023-02-15T20:44:29.204Z,102507.03
2023-02-15T20:46:59.338Z,102462.19
2023-02-15T20:49:28.968Z,102499.94
2023-02-15T20:51:58.562Z,102505.06
2023-02-15T20:54:30.388Z,102504.31
2023-02-15T20:56:59.329Z,102510.66
2023-02-15T20:59:32.320Z,102513.25
2023-02-15T21:02:02.370Z,102513.69
2023-02-15T21:04:33.168Z,102513.13
2023-02-15T21:07:02.145Z,102517.78
2023-02-15T21:09:31.133Z,102523.41
2023-02-15T21:12:02.753Z,102522.16
2023-02-15T21:14:32.804Z,102523.38
2023-02-15T21:17:01.366Z,102520.94
2023-02-15T21:19:30.428Z,102512.91
2023-02-15T21:22:00.953Z,102512.69
2023-02-15T21:24:30.640Z,102511.91
2023-02-15T21:27:03.562Z,102506.06
2023-02-15T21:29:34.052Z,102506.34
2023-02-15T21:32:04.065Z,102504.69
2023-02-15T21:34:32.912Z,102509.97
2023-02-15T21:37:01.337Z,102502.09
2023-02-15T21:39:33.820Z,102507.38
2023-02-15T21:42:19.528Z,102520.75
2023-02-15T21:45:06.748Z,102514.19
2023-02-15T21:47:52.996Z,102517.94
2023-02-15T21:50:41.392Z,102515.75
2023-02-15T21:53:13.509Z,102520.63
2023-02-15T21:55:42.334Z,102522.75
2023-02-15T21:58:20.486Z,102522.84
2023-02-15T22:00:54.895Z,102520.09
2023-02-15T22:03:24.908Z,102520.38
2023-02-15T22:05:54.070Z,102523.75
2023-02-15T22:08:22.551Z,102522.75
2023-02-15T22:10:51.088Z,102500.22
2023-02-15T22:13:27.524Z,102526.53
2023-02-15T22:15:58.227Z,102528.44
2023-02-15T22:18:31.415Z,102488.41
2023-02-15T22:21:02.284Z,102522.19
2023-02-15T22:23:30.917Z,102518.88
2023-02-15T22:26:04.170Z,102487.31
2023-02-15T22:28:34.954Z,102522.19
2023-02-15T22:31:05.891Z,102526.84
2023-02-15T22:33:35.775Z,102520.00
2023-02-15T22:36:04.160Z,102529.81
2023-02-15T22:38:32.614Z,102522.16
2023-02-15T22:41:06.249Z,102477.47
2023-02-15T22:43:40.575Z,102521.59
2023-02-15T22:46:16.941Z,102529.34
2023-02-15T22:48:47.742Z,102510.75
2023-02-15T22:51:17.292Z,102527.19
2023-02-15T22:53:45.710Z,102520.41
2023-02-15T22:56:19.645Z,102520.56
2023-02-15T22:58:50.546Z,102517.09
2023-02-15T23:01:24.925Z,102523.13
2023-02-15T23:03:53.475Z,102521.38
2023-02-15T23:06:21.850Z,102525.84
2023-02-15T23:08:50.263Z,102522.34
2023-02-15T23:11:19.692Z,102527.63
2023-02-15T23:13:49.925Z,102524.25
2023-02-15T23:16:19.379Z,102522.56
2023-02-15T23:18:49.481Z,102516.19
2023-02-15T23:21:22.289Z,102517.94
2023-02-15T23:23:53.118Z,102523.34
2023-02-15T23:26:25.022Z,102517.25
2023-02-15T23:28:57.978Z,102523.75
2023-02-15T23:31:28.834Z,102532.78
2023-02-15T23:33:59.575Z,102527.66
2023-02-15T23:36:30.696Z,102484.34
2023-02-15T23:39:20.690Z,102521.53
2023-02-15T23:41:48.072Z,102529.56
2023-02-15T23:44:16.709Z,102498.22
2023-02-15T23:46:47.499Z,102516.97
2023-02-15T23:49:19.142Z,102515.94
2023-02-15T23:51:49.430Z,102494.28
2023-02-15T23:54:19.728Z,102498.69
2023-02-15T23:56:51.515Z,102509.19
2023-02-15T23:59:22.031Z,102507.78
